sensor_id;sensor_type;location;lat;lon;timestamp;pressure;altitude;pressure_sealevel;temperature;humidity
66479;BME280;53294;47.912;13.526;2022-09-28T00:01:58;94825.13;;;9.85;67.23
66479;BME280;53294;47.912;13.526;2022-09-28T00:04:24;94827.13;;;9.59;68.55
66479;BME280;53294;47.912;13.526;2022-09-28T00:06:51;94824.19;;;9.81;67.57
66479;BME280;53294;47.912;13.526;2022-09-28T00:09:18;94828.19;;;9.66;68.11
66479;BME280;53294;47.912;13.526;2022-09-28T00:11:45;94828.00;;;9.72;67.70
66479;BME280;53294;47.912;13.526;2022-09-28T00:14:12;94830.78;;;9.54;68.69
66479;BME280;53294;47.912;13.526;2022-09-28T00:16:41;94833.97;;;9.39;69.18
66479;BME280;53294;47.912;13.526;2022-09-28T00:19:10;94825.75;;;9.44;68.86
66479;BME280;53294;47.912;13.526;2022-09-28T00:21:39;94814.00;;;9.66;68.03
66479;BME280;53294;47.912;13.526;2022-09-28T00:24:09;94814.25;;;9.43;69.24
66479;BME280;53294;47.912;13.526;2022-09-28T00:26:48;94830.41;;;9.08;70.88
66479;BME280;53294;47.912;13.526;2022-09-28T00:29:28;94815.53;;;9.37;69.51
66479;BME280;53294;47.912;13.526;2022-09-28T00:31:57;94826.91;;;9.16;70.22
66479;BME280;53294;47.912;13.526;2022-09-28T00:34:30;94836.56;;;9.00;71.18
66479;BME280;53294;47.912;13.526;2022-09-28T00:36:58;94835.75;;;9.08;70.93
66479;BME280;53294;47.912;13.526;2022-09-28T00:39:25;94839.88;;;8.97;71.96
66479;BME280;53294;47.912;13.526;2022-09-28T00:41:53;94844.91;;;8.90;72.14
66479;BME280;53294;47.912;13.526;2022-09-28T00:46:57;94841.16;;;9.00;72.12
66479;BME280;53294;47.912;13.526;2022-09-28T00:49:45;94836.41;;;9.05;71.84
66479;BME280;53294;47.912;13.526;2022-09-28T00:52:22;94840.31;;;9.16;71.11
66479;BME280;53294;47.912;13.526;2022-09-28T00:54:51;94831.63;;;9.28;70.58
66479;BME280;53294;47.912;13.526;2022-09-28T00:57:20;94826.72;;;9.39;70.44
66479;BME280;53294;47.912;13.526;2022-09-28T00:59:49;94822.22;;;9.61;69.28
66479;BME280;53294;47.912;13.526;2022-09-28T01:02:17;94824.25;;;9.64;69.26
66479;BME280;53294;47.912;13.526;2022-09-28T01:04:44;94824.41;;;9.67;69.16
66479;BME280;53294;47.912;13.526;2022-09-28T01:07:11;94821.94;;;9.83;68.63
66479;BME280;53294;47.912;13.526;2022-09-28T01:09:39;94832.97;;;9.91;68.37
66479;BME280;53294;47.912;13.526;2022-09-28T01:12:06;94838.97;;;9.87;68.56
66479;BME280;53294;47.912;13.526;2022-09-28T01:14:33;94827.47;;;9.87;68.69
66479;BME280;53294;47.912;13.526;2022-09-28T01:17:18;94820.41;;;9.82;69.00
66479;BME280;53294;47.912;13.526;2022-09-28T01:28:35;94806.44;;;9.98;68.00
66479;BME280;53294;47.912;13.526;2022-09-28T01:31:09;94797.81;;;10.13;67.96
66479;BME280;53294;47.912;13.526;2022-09-28T01:33:40;94797.28;;;10.20;67.58
66479;BME280;53294;47.912;13.526;2022-09-28T01:36:16;94779.13;;;10.26;67.52
66479;BME280;53294;47.912;13.526;2022-09-28T01:38:55;94782.25;;;10.28;67.61
66479;BME280;53294;47.912;13.526;2022-09-28T01:41:28;94776.19;;;10.10;68.35
66479;BME280;53294;47.912;13.526;2022-09-28T01:43:59;94777.63;;;9.86;69.72
66479;BME280;53294;47.912;13.526;2022-09-28T01:46:36;94751.41;;;10.13;68.33
66479;BME280;53294;47.912;13.526;2022-09-28T01:49:19;94760.13;;;10.31;67.65
66479;BME280;53294;47.912;13.526;2022-09-28T01:51:56;94769.16;;;10.26;67.87
66479;BME280;53294;47.912;13.526;2022-09-28T01:54:44;94770.59;;;10.02;68.98
66479;BME280;53294;47.912;13.526;2022-09-28T01:57:49;94764.31;;;10.19;68.58
66479;BME280;53294;47.912;13.526;2022-09-28T02:00:15;94748.84;;;9.95;68.89
66479;BME280;53294;47.912;13.526;2022-09-28T02:02:46;94737.59;;;10.02;68.39
66479;BME280;53294;47.912;13.526;2022-09-28T02:05:25;94733.03;;;10.23;67.49
66479;BME280;53294;47.912;13.526;2022-09-28T02:08:22;94737.06;;;10.30;67.53
66479;BME280;53294;47.912;13.526;2022-09-28T02:10:59;94736.97;;;10.26;67.82
66479;BME280;53294;47.912;13.526;2022-09-28T02:13:37;94734.38;;;10.30;67.79
66479;BME280;53294;47.912;13.526;2022-09-28T02:16:13;94720.06;;;10.26;67.76
66479;BME280;53294;47.912;13.526;2022-09-28T02:18:41;94711.97;;;10.34;67.03
66479;BME280;53294;47.912;13.526;2022-09-28T02:21:16;94704.09;;;10.29;67.67
66479;BME280;53294;47.912;13.526;2022-09-28T02:24:02;94694.94;;;10.30;67.22
66479;BME280;53294;47.912;13.526;2022-09-28T02:26:35;94699.06;;;10.28;67.23
66479;BME280;53294;47.912;13.526;2022-09-28T02:29:04;94693.25;;;10.26;67.48
66479;BME280;53294;47.912;13.526;2022-09-28T02:31:31;94697.16;;;9.65;70.37
66479;BME280;53294;47.912;13.526;2022-09-28T02:33:58;94684.69;;;9.90;68.69
66479;BME280;53294;47.912;13.526;2022-09-28T02:36:26;94677.69;;;9.98;68.58
66479;BME280;53294;47.912;13.526;2022-09-28T02:38:54;94674.78;;;10.03;68.18
66479;BME280;53294;47.912;13.526;2022-09-28T02:41:34;94678.13;;;10.00;68.51
66479;BME280;53294;47.912;13.526;2022-09-28T02:46:41;94689.06;;;9.95;68.32
66479;BME280;53294;47.912;13.526;2022-09-28T02:54:42;94717.91;;;9.08;72.37
66479;BME280;53294;47.912;13.526;2022-09-28T03:02:31;94682.31;;;8.99;72.42
66479;BME280;53294;47.912;13.526;2022-09-28T03:07:36;94637.19;;;9.19;70.79
66479;BME280;53294;47.912;13.526;2022-09-28T03:10:42;94644.25;;;9.23;70.72
66479;BME280;53294;47.912;13.526;2022-09-28T03:13:11;94640.03;;;9.13;71.29
66479;BME280;53294;47.912;13.526;2022-09-28T03:15:38;94630.38;;;9.21;70.66
66479;BME280;53294;47.912;13.526;2022-09-28T03:18:13;94638.66;;;9.37;70.18
66479;BME280;53294;47.912;13.526;2022-09-28T03:20:39;94636.19;;;9.53;69.50
66479;BME280;53294;47.912;13.526;2022-09-28T03:23:06;94639.97;;;9.52;69.31
66479;BME280;53294;47.912;13.526;2022-09-28T03:25:52;94628.75;;;9.59;68.98
66479;BME280;53294;47.912;13.526;2022-09-28T03:28:20;94621.41;;;9.47;69.47
66479;BME280;53294;47.912;13.526;2022-09-28T03:30:47;94619.06;;;9.45;69.23
66479;BME280;53294;47.912;13.526;2022-09-28T03:33:14;94609.38;;;9.53;68.71
66479;BME280;53294;47.912;13.526;2022-09-28T03:35:41;94607.03;;;9.51;68.66
66479;BME280;53294;47.912;13.526;2022-09-28T03:38:07;94594.88;;;9.54;68.69
66479;BME280;53294;47.912;13.526;2022-09-28T03:40:34;94589.22;;;9.26;70.09
66479;BME280;53294;47.912;13.526;2022-09-28T03:43:00;94596.25;;;9.39;69.43
66479;BME280;53294;47.912;13.526;2022-09-28T03:45:27;94593.91;;;9.59;68.69
66479;BME280;53294;47.912;13.526;2022-09-28T03:47:54;94596.31;;;9.51;68.84
66479;BME280;53294;47.912;13.526;2022-09-28T03:50:20;94594.16;;;9.66;68.22
66479;BME280;53294;47.912;13.526;2022-09-28T03:52:47;94594.63;;;9.68;68.16
66479;BME280;53294;47.912;13.526;2022-09-28T03:55:14;94588.88;;;9.57;68.66
66479;BME280;53294;47.912;13.526;2022-09-28T03:57:40;94582.56;;;9.32;69.70
66479;BME280;53294;47.912;13.526;2022-09-28T04:00:08;94588.44;;;9.25;69.61
66479;BME280;53294;47.912;13.526;2022-09-28T04:02:35;94569.66;;;9.34;69.17
66479;BME280;53294;47.912;13.526;2022-09-28T04:05:02;94565.03;;;9.13;69.93
66479;BME280;53294;47.912;13.526;2022-09-28T04:07:29;94554.38;;;9.05;70.17
66479;BME280;53294;47.912;13.526;2022-09-28T04:09:56;94549.03;;;9.05;70.55
66479;BME280;53294;47.912;13.526;2022-09-28T04:12:23;94538.19;;;9.22;69.84
66479;BME280;53294;47.912;13.526;2022-09-28T04:14:50;94535.13;;;9.11;70.41
66479;BME280;53294;47.912;13.526;2022-09-28T04:17:16;94536.16;;;8.98;71.14
66479;BME280;53294;47.912;13.526;2022-09-28T04:19:43;94521.41;;;8.92;71.35
66479;BME280;53294;47.912;13.526;2022-09-28T04:22:09;94526.22;;;9.20;70.20
66479;BME280;53294;47.912;13.526;2022-09-28T04:24:36;94516.28;;;9.41;69.45
66479;BME280;53294;47.912;13.526;2022-09-28T04:27:02;94508.06;;;9.46;69.32
66479;BME280;53294;47.912;13.526;2022-09-28T04:29:48;94502.94;;;9.53;68.99
66479;BME280;53294;47.912;13.526;2022-09-28T04:32:14;94507.22;;;9.55;69.15
66479;BME280;53294;47.912;13.526;2022-09-28T04:34:41;94492.81;;;9.59;69.18
66479;BME280;53294;47.912;13.526;2022-09-28T04:37:09;94485.25;;;9.74;68.54
66479;BME280;53294;47.912;13.526;2022-09-28T04:39:36;94492.31;;;9.78;68.37
66479;BME280;53294;47.912;13.526;2022-09-28T04:42:03;94484.53;;;9.85;68.01
66479;BME280;53294;47.912;13.526;2022-09-28T04:44:29;94480.94;;;9.81;68.11
66479;BME280;53294;47.912;13.526;2022-09-28T04:46:56;94476.47;;;9.85;68.02
66479;BME280;53294;47.912;13.526;2022-09-28T04:49:29;94478.03;;;9.86;67.89
66479;BME280;53294;47.912;13.526;2022-09-28T04:51:56;94469.75;;;9.79;68.31
66479;BME280;53294;47.912;13.526;2022-09-28T04:54:23;94475.56;;;9.81;68.32
66479;BME280;53294;47.912;13.526;2022-09-28T04:56:49;94475.50;;;9.90;67.84
66479;BME280;53294;47.912;13.526;2022-09-28T04:59:17;94470.25;;;9.94;67.60
66479;BME280;53294;47.912;13.526;2022-09-28T05:01:44;94466.06;;;9.72;68.59
66479;BME280;53294;47.912;13.526;2022-09-28T05:04:10;94468.28;;;9.82;67.75
66479;BME280;53294;47.912;13.526;2022-09-28T05:06:37;94460.72;;;9.84;67.47
66479;BME280;53294;47.912;13.526;2022-09-28T05:09:03;94445.63;;;9.79;67.59
66479;BME280;53294;47.912;13.526;2022-09-28T05:11:30;94455.34;;;9.72;67.92
66479;BME280;53294;47.912;13.526;2022-09-28T05:13:56;94451.09;;;9.83;67.56
66479;BME280;53294;47.912;13.526;2022-09-28T05:16:23;94451.44;;;9.81;67.46
66479;BME280;53294;47.912;13.526;2022-09-28T05:18:55;94444.78;;;9.54;68.57
66479;BME280;53294;47.912;13.526;2022-09-28T05:21:21;94441.63;;;9.52;68.51
66479;BME280;53294;47.912;13.526;2022-09-28T05:23:51;94435.97;;;9.66;67.75
66479;BME280;53294;47.912;13.526;2022-09-28T05:26:17;94428.28;;;9.64;67.76
66479;BME280;53294;47.912;13.526;2022-09-28T05:28:44;94432.53;;;9.32;69.38
66479;BME280;53294;47.912;13.526;2022-09-28T05:31:11;94425.78;;;9.26;69.63
66479;BME280;53294;47.912;13.526;2022-09-28T05:33:37;94428.44;;;9.47;68.81
66479;BME280;53294;47.912;13.526;2022-09-28T05:36:07;94420.56;;;9.63;68.43
66479;BME280;53294;47.912;13.526;2022-09-28T05:38:35;94415.88;;;9.72;67.96
66479;BME280;53294;47.912;13.526;2022-09-28T05:41:02;94428.34;;;9.43;69.82
66479;BME280;53294;47.912;13.526;2022-09-28T05:43:32;94434.09;;;9.33;70.36
66479;BME280;53294;47.912;13.526;2022-09-28T05:45:58;94439.31;;;9.63;68.93
66479;BME280;53294;47.912;13.526;2022-09-28T05:48:26;94450.22;;;9.45;70.06
66479;BME280;53294;47.912;13.526;2022-09-28T05:50:54;94439.44;;;9.33;70.97
66479;BME280;53294;47.912;13.526;2022-09-28T05:53:20;94435.47;;;9.39;70.64
66479;BME280;53294;47.912;13.526;2022-09-28T05:55:47;94443.97;;;9.53;70.15
66479;BME280;53294;47.912;13.526;2022-09-28T05:58:14;94442.34;;;9.61;69.98
66479;BME280;53294;47.912;13.526;2022-09-28T06:00:41;94438.63;;;9.53;70.68
66479;BME280;53294;47.912;13.526;2022-09-28T06:03:13;94429.88;;;9.44;71.81
66479;BME280;53294;47.912;13.526;2022-09-28T06:05:40;94411.59;;;9.46;71.30
66479;BME280;53294;47.912;13.526;2022-09-28T06:08:08;94411.59;;;9.46;71.73
66479;BME280;53294;47.912;13.526;2022-09-28T06:10:38;94419.47;;;9.76;70.82
66479;BME280;53294;47.912;13.526;2022-09-28T06:13:05;94405.44;;;9.92;70.71
66479;BME280;53294;47.912;13.526;2022-09-28T06:15:33;94401.16;;;9.91;71.25
66479;BME280;53294;47.912;13.526;2022-09-28T06:18:12;94404.78;;;10.19;70.20
66479;BME280;53294;47.912;13.526;2022-09-28T06:20:42;94415.03;;;10.30;69.39
66479;BME280;53294;47.912;13.526;2022-09-28T06:23:10;94418.56;;;10.43;69.05
66479;BME280;53294;47.912;13.526;2022-09-28T06:25:38;94425.59;;;10.47;69.33
66479;BME280;53294;47.912;13.526;2022-09-28T06:28:08;94416.28;;;10.20;69.52
66479;BME280;53294;47.912;13.526;2022-09-28T06:30:36;94410.13;;;9.95;70.39
66479;BME280;53294;47.912;13.526;2022-09-28T06:33:06;94418.97;;;10.07;70.81
66479;BME280;53294;47.912;13.526;2022-09-28T06:35:34;94427.78;;;10.20;71.17
66479;BME280;53294;47.912;13.526;2022-09-28T06:38:00;94422.25;;;10.38;70.69
66479;BME280;53294;47.912;13.526;2022-09-28T06:40:27;94410.38;;;10.51;70.30
66479;BME280;53294;47.912;13.526;2022-09-28T06:42:55;94396.81;;;10.72;69.54
66479;BME280;53294;47.912;13.526;2022-09-28T06:45:23;94397.94;;;10.59;70.43
66479;BME280;53294;47.912;13.526;2022-09-28T06:47:58;94390.09;;;10.78;69.98
66479;BME280;53294;47.912;13.526;2022-09-28T06:50:28;94387.63;;;10.61;70.63
66479;BME280;53294;47.912;13.526;2022-09-28T06:52:58;94397.28;;;10.50;71.17
66479;BME280;53294;47.912;13.526;2022-09-28T06:55:26;94402.72;;;10.78;69.99
66479;BME280;53294;47.912;13.526;2022-09-28T06:58:06;94390.44;;;10.77;70.19
66479;BME280;53294;47.912;13.526;2022-09-28T07:00:35;94391.13;;;11.02;69.61
66479;BME280;53294;47.912;13.526;2022-09-28T07:03:05;94382.78;;;10.91;70.06
66479;BME280;53294;47.912;13.526;2022-09-28T07:05:34;94379.91;;;11.12;69.39
66479;BME280;53294;47.912;13.526;2022-09-28T07:08:05;94378.81;;;11.29;69.08
66479;BME280;53294;47.912;13.526;2022-09-28T07:10:32;94379.50;;;11.26;68.71
66479;BME280;53294;47.912;13.526;2022-09-28T07:13:00;94372.41;;;11.06;68.55
66479;BME280;53294;47.912;13.526;2022-09-28T07:15:28;94375.44;;;11.32;68.21
66479;BME280;53294;47.912;13.526;2022-09-28T07:18:05;94366.19;;;11.46;67.11
66479;BME280;53294;47.912;13.526;2022-09-28T07:20:33;94365.44;;;11.17;68.69
66479;BME280;53294;47.912;13.526;2022-09-28T07:23:12;94380.38;;;11.02;69.56
66479;BME280;53294;47.912;13.526;2022-09-28T07:25:45;94380.97;;;10.95;70.15
66479;BME280;53294;47.912;13.526;2022-09-28T07:28:13;94385.06;;;11.34;69.06
66479;BME280;53294;47.912;13.526;2022-09-28T07:30:40;94382.31;;;11.46;68.42
66479;BME280;53294;47.912;13.526;2022-09-28T07:33:11;94382.59;;;11.57;68.31
66479;BME280;53294;47.912;13.526;2022-09-28T07:35:39;94383.75;;;11.72;67.99
66479;BME280;53294;47.912;13.526;2022-09-28T07:38:10;94395.47;;;11.79;67.74
66479;BME280;53294;47.912;13.526;2022-09-28T07:40:36;94405.41;;;11.47;68.66
66479;BME280;53294;47.912;13.526;2022-09-28T07:43:22;94413.91;;;11.49;69.16
66479;BME280;53294;47.912;13.526;2022-09-28T07:45:51;94415.97;;;11.56;68.57
66479;BME280;53294;47.912;13.526;2022-09-28T07:48:18;94415.81;;;11.48;69.57
66479;BME280;53294;47.912;13.526;2022-09-28T07:50:52;94422.50;;;11.55;69.28
66479;BME280;53294;47.912;13.526;2022-09-28T07:53:22;94413.69;;;11.42;69.43
66479;BME280;53294;47.912;13.526;2022-09-28T07:55:51;94418.66;;;11.56;68.92
66479;BME280;53294;47.912;13.526;2022-09-28T07:58:18;94418.59;;;11.52;69.31
66479;BME280;53294;47.912;13.526;2022-09-28T08:00:47;94429.63;;;11.79;68.30
66479;BME280;53294;47.912;13.526;2022-09-28T08:03:15;94440.78;;;11.49;69.51
66479;BME280;53294;47.912;13.526;2022-09-28T08:05:43;94446.34;;;11.56;69.00
66479;BME280;53294;47.912;13.526;2022-09-28T08:08:09;94449.00;;;11.68;68.47
66479;BME280;53294;47.912;13.526;2022-09-28T08:10:36;94458.38;;;11.75;68.06
66479;BME280;53294;47.912;13.526;2022-09-28T08:13:04;94453.69;;;11.72;68.22
66479;BME280;53294;47.912;13.526;2022-09-28T08:15:34;94445.41;;;11.64;68.03
66479;BME280;53294;47.912;13.526;2022-09-28T08:18:03;94460.91;;;11.55;68.62
66479;BME280;53294;47.912;13.526;2022-09-28T08:20:31;94450.03;;;11.80;68.27
66479;BME280;53294;47.912;13.526;2022-09-28T08:23:17;94438.94;;;11.81;68.18
66479;BME280;53294;47.912;13.526;2022-09-28T08:25:46;94441.34;;;11.71;68.73
66479;BME280;53294;47.912;13.526;2022-09-28T08:28:16;94436.84;;;11.46;69.54
66479;BME280;53294;47.912;13.526;2022-09-28T08:30:44;94421.63;;;11.66;69.05
66479;BME280;53294;47.912;13.526;2022-09-28T08:33:15;94422.66;;;11.90;68.58
66479;BME280;53294;47.912;13.526;2022-09-28T08:35:58;94430.25;;;11.88;68.70
66479;BME280;53294;47.912;13.526;2022-09-28T08:38:29;94428.91;;;11.94;68.52
66479;BME280;53294;47.912;13.526;2022-09-28T08:41:11;94432.13;;;12.00;68.83
66479;BME280;53294;47.912;13.526;2022-09-28T08:46:37;94427.88;;;12.15;68.78
66479;BME280;53294;47.912;13.526;2022-09-28T08:49:22;94436.91;;;12.07;68.52
66479;BME280;53294;47.912;13.526;2022-09-28T08:54:50;94435.53;;;12.45;67.97
66479;BME280;53294;47.912;13.526;2022-09-28T08:57:26;94445.84;;;12.43;68.78
66479;BME280;53294;47.912;13.526;2022-09-28T08:59:57;94444.91;;;12.51;68.62
66479;BME280;53294;47.912;13.526;2022-09-28T09:02:31;94439.81;;;12.65;67.94
66479;BME280;53294;47.912;13.526;2022-09-28T09:05:03;94444.59;;;12.72;68.22
66479;BME280;53294;47.912;13.526;2022-09-28T09:10:16;94455.16;;;12.29;67.40
66479;BME280;53294;47.912;13.526;2022-09-28T09:16:05;94466.16;;;12.08;68.49
66479;BME280;53294;47.912;13.526;2022-09-28T09:18:48;94462.34;;;12.57;67.64
66479;BME280;53294;47.912;13.526;2022-09-28T09:21:41;94470.44;;;12.57;67.88
66479;BME280;53294;47.912;13.526;2022-09-28T09:26:48;94457.03;;;12.61;68.75
66479;BME280;53294;47.912;13.526;2022-09-28T09:29:34;94453.72;;;12.67;68.25
66479;BME280;53294;47.912;13.526;2022-09-28T09:34:56;94460.25;;;12.66;69.13
66479;BME280;53294;47.912;13.526;2022-09-28T09:37:49;94460.00;;;13.07;68.39
66479;BME280;53294;47.912;13.526;2022-09-28T09:46:11;94457.41;;;13.14;67.29
66479;BME280;53294;47.912;13.526;2022-09-28T09:48:57;94456.50;;;12.55;67.13
66479;BME280;53294;47.912;13.526;2022-09-28T09:53:59;94457.72;;;13.09;66.34
66479;BME280;53294;47.912;13.526;2022-09-28T09:56:40;94462.75;;;13.46;66.82
66479;BME280;53294;47.912;13.526;2022-09-28T09:59:13;94463.31;;;13.20;66.71
66479;BME280;53294;47.912;13.526;2022-09-28T10:01:44;94444.91;;;13.61;67.46
66479;BME280;53294;47.912;13.526;2022-09-28T10:04:19;94448.13;;;13.90;66.97
66479;BME280;53294;47.912;13.526;2022-09-28T10:06:47;94448.28;;;13.97;66.89
66479;BME280;53294;47.912;13.526;2022-09-28T10:09:22;94458.47;;;13.45;64.23
66479;BME280;53294;47.912;13.526;2022-09-28T10:11:50;94455.81;;;13.29;65.90
66479;BME280;53294;47.912;13.526;2022-09-28T10:14:22;94454.38;;;12.96;65.99
66479;BME280;53294;47.912;13.526;2022-09-28T10:16:52;94439.47;;;13.02;65.60
66479;BME280;53294;47.912;13.526;2022-09-28T10:19:30;94443.47;;;13.28;64.17
66479;BME280;53294;47.912;13.526;2022-09-28T10:22:03;94440.16;;;13.54;64.29
66479;BME280;53294;47.912;13.526;2022-09-28T10:24:33;94446.50;;;13.07;64.13
66479;BME280;53294;47.912;13.526;2022-09-28T10:27:07;94432.22;;;13.06;65.50
66479;BME280;53294;47.912;13.526;2022-09-28T10:32:43;94449.44;;;13.37;63.88
66479;BME280;53294;47.912;13.526;2022-09-28T10:37:59;94448.19;;;12.60;65.99
66479;BME280;53294;47.912;13.526;2022-09-28T10:41:08;94445.91;;;12.62;63.38
66479;BME280;53294;47.912;13.526;2022-09-28T10:43:53;94453.22;;;12.46;65.75
66479;BME280;53294;47.912;13.526;2022-09-28T10:46:37;94452.34;;;12.57;66.99
66479;BME280;53294;47.912;13.526;2022-09-28T10:49:35;94449.13;;;12.68;65.81
66479;BME280;53294;47.912;13.526;2022-09-28T10:54:56;94447.22;;;13.23;66.50
66479;BME280;53294;47.912;13.526;2022-09-28T10:57:27;94449.56;;;13.25;64.20
66479;BME280;53294;47.912;13.526;2022-09-28T10:59:54;94447.13;;;13.00;64.49
66479;BME280;53294;47.912;13.526;2022-09-28T11:02:25;94454.94;;;13.05;65.63
66479;BME280;53294;47.912;13.526;2022-09-28T11:05:00;94459.56;;;13.24;64.10
66479;BME280;53294;47.912;13.526;2022-09-28T11:07:29;94465.63;;;13.37;64.81
66479;BME280;53294;47.912;13.526;2022-09-28T11:09:58;94459.81;;;13.35;64.74
66479;BME280;53294;47.912;13.526;2022-09-28T11:12:34;94457.00;;;13.48;65.25
66479;BME280;53294;47.912;13.526;2022-09-28T11:15:05;94463.38;;;13.59;63.54
66479;BME280;53294;47.912;13.526;2022-09-28T11:17:35;94463.63;;;13.73;63.43
66479;BME280;53294;47.912;13.526;2022-09-28T11:22:56;94460.00;;;13.65;64.29
66479;BME280;53294;47.912;13.526;2022-09-28T11:25:26;94470.19;;;13.53;63.83
66479;BME280;53294;47.912;13.526;2022-09-28T11:32:51;94477.00;;;13.11;64.81
66479;BME280;53294;47.912;13.526;2022-09-28T11:35:22;94477.56;;;12.85;64.56
66479;BME280;53294;47.912;13.526;2022-09-28T11:37:57;94469.34;;;12.78;64.47
66479;BME280;53294;47.912;13.526;2022-09-28T11:51:51;94460.41;;;12.73;65.62
66479;BME280;53294;47.912;13.526;2022-09-28T11:54:26;94461.91;;;12.55;66.07
66479;BME280;53294;47.912;13.526;2022-09-28T11:56:59;94462.25;;;12.37;67.03
66479;BME280;53294;47.912;13.526;2022-09-28T11:59:36;94462.59;;;12.52;67.84
66479;BME280;53294;47.912;13.526;2022-09-28T12:02:54;94461.38;;;12.65;67.45
66479;BME280;53294;47.912;13.526;2022-09-28T12:05:48;94461.66;;;12.60;67.52
66479;BME280;53294;47.912;13.526;2022-09-28T12:08:22;94465.66;;;12.34;66.55
66479;BME280;53294;47.912;13.526;2022-09-28T12:13:32;94460.78;;;12.56;66.44
66479;BME280;53294;47.912;13.526;2022-09-28T12:21:51;94469.75;;;13.51;66.20
66479;BME280;53294;47.912;13.526;2022-09-28T12:24:26;94467.69;;;13.83;65.79
66479;BME280;53294;47.912;13.526;2022-09-28T12:26:58;94463.06;;;13.83;64.44
66479;BME280;53294;47.912;13.526;2022-09-28T12:29:50;94456.13;;;14.29;64.20
66479;BME280;53294;47.912;13.526;2022-09-28T12:32:30;94456.31;;;14.63;63.65
66479;BME280;53294;47.912;13.526;2022-09-28T12:41:20;94454.97;;;15.03;61.86
66479;BME280;53294;47.912;13.526;2022-09-28T12:46:58;94467.59;;;14.45;60.47
66479;BME280;53294;47.912;13.526;2022-09-28T13:06:54;94491.94;;;13.24;60.48
66479;BME280;53294;47.912;13.526;2022-09-28T13:09:22;94497.16;;;13.17;61.91
66479;BME280;53294;47.912;13.526;2022-09-28T13:17:37;94496.91;;;13.06;62.60
66479;BME280;53294;47.912;13.526;2022-09-28T13:20:20;94510.16;;;13.11;63.74
66479;BME280;53294;47.912;13.526;2022-09-28T13:25:33;94505.88;;;13.10;64.09
66479;BME280;53294;47.912;13.526;2022-09-28T13:28:04;94509.44;;;13.15;63.98
66479;BME280;53294;47.912;13.526;2022-09-28T13:30:35;94531.53;;;13.04;64.81
66479;BME280;53294;47.912;13.526;2022-09-28T13:33:04;94527.31;;;13.23;64.62
66479;BME280;53294;47.912;13.526;2022-09-28T13:35:32;94535.34;;;13.03;64.99
66479;BME280;53294;47.912;13.526;2022-09-28T13:52:03;94547.91;;;12.80;66.45
66479;BME280;53294;47.912;13.526;2022-09-28T14:00:02;94548.81;;;13.19;65.54
66479;BME280;53294;47.912;13.526;2022-09-28T14:06:04;94554.88;;;13.32;64.82
66479;BME280;53294;47.912;13.526;2022-09-28T14:08:39;94546.47;;;13.18;64.93
66479;BME280;53294;47.912;13.526;2022-09-28T14:11:22;94542.81;;;13.26;64.71
66479;BME280;53294;47.912;13.526;2022-09-28T14:16:26;94545.84;;;12.57;65.79
66479;BME280;53294;47.912;13.526;2022-09-28T14:19:07;94539.75;;;12.60;65.39
66479;BME280;53294;47.912;13.526;2022-09-28T14:24:53;94547.53;;;12.17;66.01
66479;BME280;53294;47.912;13.526;2022-09-28T14:27:47;94548.06;;;12.23;65.58
66479;BME280;53294;47.912;13.526;2022-09-28T14:30:46;94546.97;;;12.12;65.27
66479;BME280;53294;47.912;13.526;2022-09-28T14:35:58;94539.50;;;12.05;65.54
66479;BME280;53294;47.912;13.526;2022-09-28T14:38:34;94532.94;;;12.02;65.59
66479;BME280;53294;47.912;13.526;2022-09-28T14:41:28;94539.75;;;12.00;65.77
66479;BME280;53294;47.912;13.526;2022-09-28T14:43:57;94538.03;;;12.08;65.55
66479;BME280;53294;47.912;13.526;2022-09-28T14:54:20;94557.38;;;11.97;66.19
66479;BME280;53294;47.912;13.526;2022-09-28T14:59:30;94559.69;;;11.71;67.58
66479;BME280;53294;47.912;13.526;2022-09-28T15:02:22;94556.59;;;11.97;67.50
66479;BME280;53294;47.912;13.526;2022-09-28T15:04:53;94560.97;;;11.89;67.58
66479;BME280;53294;47.912;13.526;2022-09-28T15:07:45;94560.00;;;12.54;66.08
66479;BME280;53294;47.912;13.526;2022-09-28T15:10:21;94560.69;;;12.67;64.78
66479;BME280;53294;47.912;13.526;2022-09-28T15:12:54;94566.34;;;12.78;64.58
66479;BME280;53294;47.912;13.526;2022-09-28T15:15:25;94569.03;;;12.78;64.81
66479;BME280;53294;47.912;13.526;2022-09-28T15:18:03;94569.09;;;12.97;63.86
66479;BME280;53294;47.912;13.526;2022-09-28T15:20:38;94565.78;;;12.88;64.54
66479;BME280;53294;47.912;13.526;2022-09-28T15:25:53;94561.06;;;13.17;63.94
66479;BME280;53294;47.912;13.526;2022-09-28T15:28:22;94566.84;;;12.99;64.54
66479;BME280;53294;47.912;13.526;2022-09-28T15:30:50;94560.38;;;13.20;64.20
66479;BME280;53294;47.912;13.526;2022-09-28T15:36:20;94572.69;;;12.85;64.77
66479;BME280;53294;47.912;13.526;2022-09-28T15:38:59;94565.34;;;13.18;64.66
66479;BME280;53294;47.912;13.526;2022-09-28T15:41:27;94567.75;;;13.23;64.35
66479;BME280;53294;47.912;13.526;2022-09-28T15:46:42;94560.44;;;13.23;64.26
66479;BME280;53294;47.912;13.526;2022-09-28T15:52:04;94565.84;;;13.23;64.68
66479;BME280;53294;47.912;13.526;2022-09-28T15:54:41;94559.25;;;13.37;64.37
66479;BME280;53294;47.912;13.526;2022-09-28T15:57:34;94559.59;;;13.03;65.69
66479;BME280;53294;47.912;13.526;2022-09-28T16:02:59;94550.66;;;13.15;65.27
66479;BME280;53294;47.912;13.526;2022-09-28T16:06:11;94562.31;;;13.03;64.95
66479;BME280;53294;47.912;13.526;2022-09-28T16:08:42;94572.69;;;12.85;65.32
66479;BME280;53294;47.912;13.526;2022-09-28T16:11:22;94583.00;;;12.83;65.24
66479;BME280;53294;47.912;13.526;2022-09-28T16:16:53;94573.44;;;13.18;64.24
66479;BME280;53294;47.912;13.526;2022-09-28T16:21:58;94585.94;;;13.42;63.98
66479;BME280;53294;47.912;13.526;2022-09-28T16:24:32;94590.13;;;13.39;63.60
66479;BME280;53294;47.912;13.526;2022-09-28T16:27:08;94596.44;;;13.31;63.86